Time;durP1;ratioP1;P1;durP2;ratioP2;P2;SDS_P1;SDS_P2;PMS_P1;PMS_P2;Temp;Humidity;BMP_temperature;BMP_pressure;BME280_temperature;BME280_humidity;BME280_pressure;Samples;Min_cycle;Max_cycle;Signal;HPM_P1;HPM_P2
2023/10/24 00:00:24;;;;;;;6.20;2.28;;;14.50;99.90;;;;;;2101232;28;20046;-70
2023/10/24 00:01:25;;;;;;;5.10;2.13;;;14.50;99.90;;;;;;2098073;28;20163;-70
2023/10/24 00:02:25;;;;;;;4.70;2.40;;;14.50;99.90;;;;;;2099355;28;20032;-69
2023/10/24 00:03:26;;;;;;;3.33;1.80;;;14.50;99.90;;;;;;2097189;28;20029;-70
2023/10/24 00:04:26;;;;;;;4.75;1.92;;;14.50;99.90;;;;;;2098071;28;20467;-70
2023/10/24 00:05:28;;;;;;;3.47;1.85;;;14.50;99.90;;;;;;2097993;28;20028;-70
2023/10/24 00:06:28;;;;;;;4.53;1.80;;;14.50;99.90;;;;;;2096624;28;20398;-69
2023/10/24 00:07:29;;;;;;;3.60;1.85;;;14.60;99.90;;;;;;2097197;28;20403;-70
2023/10/24 00:08:30;;;;;;;5.53;2.03;;;14.50;99.90;;;;;;2096993;28;20020;-69
2023/10/24 00:09:30;;;;;;;5.38;2.35;;;14.50;99.90;;;;;;2096968;28;20047;-69
2023/10/24 00:10:31;;;;;;;4.40;1.83;;;14.50;99.90;;;;;;2101821;28;20020;-70
2023/10/24 00:11:33;;;;;;;4.95;1.83;;;14.50;99.90;;;;;;2101826;28;20490;-69
2023/10/24 00:12:33;;;;;;;2.97;1.65;;;14.50;99.90;;;;;;2098409;28;20027;-69
2023/10/24 00:13:34;;;;;;;4.03;1.98;;;14.60;99.90;;;;;;2104669;28;20028;-70
2023/10/24 00:14:35;;;;;;;6.03;2.03;;;14.50;99.90;;;;;;2106126;28;21466;-73
2023/10/24 00:15:35;;;;;;;4.53;1.92;;;14.50;99.90;;;;;;2098625;28;20040;-73
2023/10/24 00:16:36;;;;;;;3.55;1.70;;;14.50;99.90;;;;;;2096445;28;20048;-72
2023/10/24 00:17:36;;;;;;;3.75;1.30;;;14.50;99.90;;;;;;2098844;28;20601;-73
2023/10/24 00:18:37;;;;;;;4.47;2.25;;;14.50;99.90;;;;;;2095956;28;20028;-73
2023/10/24 00:19:37;;;;;;;3.63;1.83;;;14.50;99.90;;;;;;2098538;28;20020;-73
2023/10/24 00:20:38;;;;;;;8.63;2.30;;;14.50;99.90;;;;;;2098462;28;20070;-73
2023/10/24 00:21:39;;;;;;;2.88;1.80;;;14.50;99.90;;;;;;2097787;28;20474;-73
2023/10/24 00:22:39;;;;;;;5.18;2.50;;;14.50;99.90;;;;;;2096065;28;20047;-72
2023/10/24 00:23:40;;;;;;;4.78;1.52;;;14.50;99.90;;;;;;2096948;28;20056;-73
2023/10/24 00:24:40;;;;;;;4.63;2.05;;;14.50;99.90;;;;;;2097340;28;20024;-70
2023/10/24 00:25:41;;;;;;;6.10;2.33;;;14.50;99.90;;;;;;2097783;28;20073;-69
2023/10/24 00:26:41;;;;;;;4.82;1.80;;;14.50;99.90;;;;;;2097685;28;20375;-70
2023/10/24 00:27:42;;;;;;;3.50;1.90;;;14.50;99.90;;;;;;2100871;28;20531;-70
2023/10/24 00:28:42;;;;;;;4.70;2.08;;;14.50;99.90;;;;;;2094343;28;20021;-70
2023/10/24 00:29:43;;;;;;;3.63;1.70;;;14.50;99.90;;;;;;2098703;28;20029;-70
2023/10/24 00:30:43;;;;;;;7.40;2.72;;;14.50;99.90;;;;;;2096991;28;20451;-70
2023/10/24 00:31:44;;;;;;;5.13;2.10;;;14.50;99.90;;;;;;2105043;28;20021;-70
2023/10/24 00:32:49;;;;;;;4.38;1.88;;;14.50;99.90;;;;;;2105020;28;20047;-70
2023/10/24 00:33:50;;;;;;;3.72;1.63;;;14.50;99.90;;;;;;2098411;28;20035;-71
2023/10/24 00:34:50;;;;;;;6.15;2.10;;;14.50;99.90;;;;;;2098297;28;20040;-70
2023/10/24 00:35:51;;;;;;;7.45;2.10;;;14.50;99.90;;;;;;2097912;28;20021;-70
2023/10/24 00:36:52;;;;;;;3.03;1.90;;;14.50;99.90;;;;;;2099755;28;20056;-70
2023/10/24 00:37:52;;;;;;;3.33;1.55;;;14.50;99.90;;;;;;2098185;28;20033;-70
2023/10/24 00:38:53;;;;;;;5.47;1.95;;;14.50;99.90;;;;;;2098554;28;20033;-70
2023/10/24 00:39:53;;;;;;;4.30;1.83;;;14.50;99.90;;;;;;2102893;28;20097;-70
2023/10/24 00:40:54;;;;;;;6.13;2.28;;;14.50;99.90;;;;;;2102325;28;20036;-70
2023/10/24 00:41:54;;;;;;;2.65;1.60;;;14.50;99.90;;;;;;2098559;28;20107;-70
2023/10/24 00:43:03;;;;;;;5.82;1.98;;;14.50;99.90;;;;;;2096408;28;20117;-70
2023/10/24 00:44:04;;;;;;;4.55;1.80;;;14.50;99.90;;;;;;2097241;28;20025;-70
2023/10/24 00:45:06;;;;;;;3.08;1.70;;;14.50;99.90;;;;;;2095471;28;20028;-71
2023/10/24 00:46:08;;;;;;;3.92;1.80;;;14.60;99.90;;;;;;2097263;28;20075;-70
2023/10/24 00:47:09;;;;;;;4.70;2.13;;;14.60;99.90;;;;;;2096016;28;20028;-70
2023/10/24 00:48:10;;;;;;;3.28;1.70;;;14.60;99.90;;;;;;2097675;28;20031;-70
2023/10/24 00:49:11;;;;;;;3.58;1.70;;;14.60;99.90;;;;;;2097702;28;20055;-70
2023/10/24 00:50:13;;;;;;;5.65;2.15;;;14.60;99.90;;;;;;2098344;28;20017;-70
2023/10/24 00:51:13;;;;;;;2.92;2.00;;;14.60;99.90;;;;;;2098945;28;20025;-70
2023/10/24 00:52:14;;;;;;;4.32;2.08;;;14.60;99.90;;;;;;2098943;28;20025;-70
2023/10/24 00:53:14;;;;;;;5.53;2.05;;;14.60;99.90;;;;;;2096346;28;20024;-70
2023/10/24 00:54:15;;;;;;;4.07;1.70;;;14.60;99.90;;;;;;2106291;28;20934;-70
2023/10/24 00:55:16;;;;;;;2.65;1.77;;;14.60;99.90;;;;;;2096936;28;20189;-70
2023/10/24 00:56:17;;;;;;;3.67;1.52;;;14.70;99.90;;;;;;2097603;28;20055;-69
2023/10/24 00:57:18;;;;;;;4.68;2.20;;;14.60;99.90;;;;;;2102323;28;20542;-70
2023/10/24 00:58:19;;;;;;;4.65;2.35;;;14.60;99.90;;;;;;2102434;28;20032;-68
2023/10/24 00:59:23;;;;;;;5.72;2.03;;;14.60;99.90;;;;;;2097661;28;20021;-69
2023/10/24 01:00:26;;;;;;;4.43;2.22;;;14.70;99.90;;;;;;2097382;28;20037;-69
2023/10/24 01:01:26;;;;;;;3.28;2.08;;;14.70;99.90;;;;;;2096630;28;20137;-70
2023/10/24 01:02:27;;;;;;;4.38;1.98;;;14.70;99.90;;;;;;2098626;28;20662;-69
2023/10/24 01:03:28;;;;;;;6.05;1.55;;;14.70;99.90;;;;;;2097445;28;20087;-69
2023/10/24 01:04:28;;;;;;;7.30;2.35;;;14.70;99.90;;;;;;2097140;28;20040;-70
2023/10/24 01:05:31;;;;;;;3.53;2.22;;;14.70;99.90;;;;;;2098398;28;20059;-69
2023/10/24 01:06:31;;;;;;;5.65;2.00;;;14.70;99.90;;;;;;2098657;28;20505;-69
2023/10/24 01:07:32;;;;;;;4.22;1.92;;;14.70;99.90;;;;;;2100101;28;20716;-69
2023/10/24 01:08:33;;;;;;;3.85;1.88;;;14.70;99.90;;;;;;2097172;28;20112;-70
2023/10/24 01:09:33;;;;;;;4.63;2.05;;;14.70;99.90;;;;;;2097719;28;20025;-70
2023/10/24 01:10:34;;;;;;;5.45;2.20;;;14.70;99.90;;;;;;2100119;28;20031;-70
2023/10/24 01:11:34;;;;;;;5.47;1.88;;;14.80;99.90;;;;;;2097747;28;20059;-70
2023/10/24 01:12:35;;;;;;;5.40;2.22;;;14.80;99.90;;;;;;2098831;28;20041;-70
2023/10/24 01:13:36;;;;;;;3.83;1.80;;;14.80;99.90;;;;;;2099626;28;20032;-69
2023/10/24 01:14:37;;;;;;;6.90;1.88;;;14.80;99.90;;;;;;2101938;28;20119;-71
2023/10/24 01:15:37;;;;;;;3.65;1.98;;;14.80;99.90;;;;;;2100512;28;20036;-69
2023/10/24 01:16:43;;;;;;;5.00;2.38;;;14.80;99.90;;;;;;2097230;28;20032;-70
2023/10/24 01:17:50;;;;;;;2.70;1.90;;;14.80;99.90;;;;;;2099049;28;20028;-70
2023/10/24 01:18:51;;;;;;;6.13;2.13;;;14.80;99.90;;;;;;2097412;28;20020;-70
2023/10/24 01:19:52;;;;;;;3.55;1.92;;;14.80;99.90;;;;;;2098842;28;20031;-70
2023/10/24 01:20:52;;;;;;;3.10;1.73;;;14.80;99.90;;;;;;2098005;28;20032;-70
2023/10/24 01:21:53;;;;;;;3.55;1.77;;;14.80;99.90;;;;;;2107423;28;20024;-69
2023/10/24 01:22:53;;;;;;;3.47;1.70;;;14.80;99.90;;;;;;2104754;28;20502;-70
2023/10/24 01:23:56;;;;;;;6.45;1.63;;;14.80;99.90;;;;;;2096486;28;20036;-70
2023/10/24 01:24:56;;;;;;;3.78;1.73;;;14.80;99.90;;;;;;2097314;28;20024;-71
2023/10/24 01:25:58;;;;;;;6.43;1.80;;;14.80;99.90;;;;;;2098445;28;20032;-70
2023/10/24 01:26:59;;;;;;;5.90;1.85;;;14.80;99.90;;;;;;2096972;28;20032;-70
2023/10/24 01:28:00;;;;;;;3.90;1.77;;;14.80;99.90;;;;;;2096712;28;20017;-70
2023/10/24 01:29:01;;;;;;;5.82;1.83;;;14.90;99.90;;;;;;2099339;28;20020;-69
2023/10/24 01:30:01;;;;;;;7.25;1.60;;;14.90;99.90;;;;;;2098531;28;20039;-69
2023/10/24 01:31:02;;;;;;;4.07;1.80;;;14.90;99.90;;;;;;2098719;28;20364;-70
2023/10/24 01:32:03;;;;;;;3.20;1.75;;;14.90;99.90;;;;;;2098493;28;20156;-71
2023/10/24 01:33:04;;;;;;;6.07;1.77;;;14.90;99.90;;;;;;2098803;28;20021;-70
2023/10/24 01:34:04;;;;;;;2.42;1.67;;;14.90;99.90;;;;;;2098389;28;20035;-70
2023/10/24 01:35:07;;;;;;;5.40;2.67;;;14.90;99.90;;;;;;2099996;28;20034;-70
2023/10/24 01:36:07;;;;;;;6.32;1.73;;;14.90;99.90;;;;;;2097562;28;20103;-69
2023/10/24 01:37:09;;;;;;;3.85;1.83;;;14.90;99.90;;;;;;2098917;28;20054;-70
2023/10/24 01:38:10;;;;;;;3.20;1.52;;;14.90;99.90;;;;;;2097611;28;20017;-69
2023/10/24 01:39:11;;;;;;;4.28;2.00;;;14.90;99.90;;;;;;2099866;28;20030;-69
2023/10/24 01:40:12;;;;;;;4.15;1.67;;;15.00;99.90;;;;;;2096977;28;20035;-69
2023/10/24 01:41:12;;;;;;;3.60;1.73;;;15.00;99.90;;;;;;2098295;28;20036;-70
2023/10/24 01:42:13;;;;;;;4.72;2.20;;;15.00;99.90;;;;;;2097192;28;20044;-71
2023/10/24 01:43:13;;;;;;;2.67;1.50;;;14.90;99.90;;;;;;2096384;28;20059;-70
2023/10/24 01:44:14;;;;;;;2.15;1.55;;;15.00;99.90;;;;;;2097515;28;20033;-70
2023/10/24 01:45:15;;;;;;;3.22;1.50;;;15.00;99.90;;;;;;2098031;28;20032;-69
2023/10/24 01:46:16;;;;;;;3.30;1.58;;;15.00;99.90;;;;;;2098062;28;20671;-69
2023/10/24 01:47:17;;;;;;;2.58;1.30;;;15.00;99.90;;;;;;2098938;28;20032;-70
2023/10/24 01:48:18;;;;;;;3.03;1.42;;;15.00;99.90;;;;;;2098400;28;20077;-70
2023/10/24 01:49:21;;;;;;;2.88;1.50;;;15.00;99.90;;;;;;2097814;28;20081;-69
2023/10/24 01:50:21;;;;;;;4.70;1.50;;;15.00;99.90;;;;;;2098399;28;20334;-70
2023/10/24 01:51:22;;;;;;;3.35;1.60;;;15.00;99.90;;;;;;2097514;28;20024;-70
2023/10/24 01:52:22;;;;;;;3.55;1.75;;;15.00;99.90;;;;;;2096691;28;20679;-71
2023/10/24 01:53:23;;;;;;;3.97;1.90;;;15.00;99.90;;;;;;2096494;28;20021;-69
2023/10/24 01:54:23;;;;;;;5.22;1.50;;;15.00;99.90;;;;;;2096804;28;20055;-70
2023/10/24 01:55:24;;;;;;;5.57;1.63;;;15.00;99.90;;;;;;2098323;28;20479;-69
2023/10/24 01:56:24;;;;;;;4.43;1.58;;;15.00;99.90;;;;;;2097441;28;20035;-69
2023/10/24 01:57:25;;;;;;;3.28;1.35;;;15.00;99.90;;;;;;2096650;28;20581;-70
2023/10/24 01:58:26;;;;;;;3.47;1.63;;;15.00;99.90;;;;;;2098913;28;20031;-71
2023/10/24 01:59:26;;;;;;;2.35;1.00;;;15.00;99.90;;;;;;2098358;28;20055;-69
2023/10/24 02:00:27;;;;;;;2.38;1.20;;;15.10;99.90;;;;;;2098742;28;20540;-71
2023/10/24 02:01:27;;;;;;;3.88;1.40;;;15.00;99.90;;;;;;2099196;28;20028;-70
2023/10/24 02:02:28;;;;;;;2.50;1.02;;;15.10;99.90;;;;;;2098772;28;20055;-70
2023/10/24 02:03:28;;;;;;;2.10;1.13;;;15.10;99.90;;;;;;2098794;28;20484;-69
2023/10/24 02:04:29;;;;;;;3.50;1.50;;;15.10;99.90;;;;;;2098447;28;20020;-69
2023/10/24 02:05:29;;;;;;;4.28;1.65;;;15.10;99.90;;;;;;2098550;28;20059;-70
2023/10/24 02:06:30;;;;;;;3.65;1.25;;;15.10;99.90;;;;;;2100866;28;20033;-70
2023/10/24 02:07:31;;;;;;;2.85;1.40;;;15.10;99.90;;;;;;2098863;28;20048;-70
2023/10/24 02:08:31;;;;;;;3.15;1.58;;;15.10;99.90;;;;;;2097594;28;20028;-70
2023/10/24 02:09:32;;;;;;;1.67;1.20;;;15.10;99.90;;;;;;2097818;28;20439;-70
2023/10/24 02:10:32;;;;;;;2.65;1.35;;;15.10;99.90;;;;;;2099324;28;20028;-70
2023/10/24 02:11:33;;;;;;;2.65;1.50;;;15.10;99.90;;;;;;2099729;28;20320;-70
2023/10/24 02:12:34;;;;;;;4.45;1.20;;;15.10;99.90;;;;;;2098123;28;20025;-70
2023/10/24 02:13:35;;;;;;;3.10;1.08;;;15.10;99.90;;;;;;2097288;28;20021;-70
2023/10/24 02:14:35;;;;;;;3.63;1.45;;;15.10;99.90;;;;;;2097653;28;20132;-70
2023/10/24 02:15:37;;;;;;;4.05;1.15;;;15.10;99.90;;;;;;2098240;28;20020;-71
2023/10/24 02:16:38;;;;;;;2.17;1.05;;;15.10;99.90;;;;;;2098011;28;20017;-71
2023/10/24 02:17:41;;;;;;;3.30;1.50;;;15.10;99.90;;;;;;2100266;28;20024;-70
2023/10/24 02:18:42;;;;;;;4.03;1.23;;;15.10;99.90;;;;;;2100845;28;20021;-70
2023/10/24 02:19:42;;;;;;;3.03;1.30;;;15.10;99.90;;;;;;2102919;28;20020;-70
2023/10/24 02:20:43;;;;;;;3.92;1.20;;;15.20;99.90;;;;;;2094788;28;20483;-71
2023/10/24 02:21:43;;;;;;;3.47;1.20;;;15.20;99.90;;;;;;2102247;28;20056;-69
2023/10/24 02:22:48;;;;;;;5.70;1.40;;;15.20;99.90;;;;;;2098738;28;20107;-70
2023/10/24 02:23:49;;;;;;;3.22;1.50;;;15.20;99.90;;;;;;2098380;28;20026;-69
2023/10/24 02:24:50;;;;;;;3.17;1.45;;;15.20;99.90;;;;;;2097634;28;20034;-69
2023/10/24 02:25:50;;;;;;;4.72;1.30;;;15.20;99.90;;;;;;2098521;28;20495;-70
2023/10/24 02:26:51;;;;;;;3.03;1.40;;;15.20;99.90;;;;;;2098640;28;20028;-70
2023/10/24 02:27:54;;;;;;;2.00;1.10;;;15.20;99.90;;;;;;2100177;28;20020;-71
2023/10/24 02:28:56;;;;;;;3.40;1.33;;;15.20;99.90;;;;;;2099211;28;20020;-70
2023/10/24 02:29:57;;;;;;;2.40;1.38;;;15.20;99.90;;;;;;2099115;28;20103;-70
2023/10/24 02:31:01;;;;;;;2.63;1.13;;;15.20;99.90;;;;;;2097934;28;20035;-69
2023/10/24 02:32:02;;;;;;;3.33;1.50;;;15.20;99.90;;;;;;2098247;28;20021;-69
2023/10/24 02:33:03;;;;;;;2.33;1.33;;;15.20;99.90;;;;;;2099872;28;20113;-70
2023/10/24 02:34:03;;;;;;;1.58;1.00;;;15.20;99.90;;;;;;2099252;28;20098;-70
2023/10/24 02:35:04;;;;;;;3.50;1.52;;;15.20;99.90;;;;;;2098482;28;20028;-70
2023/10/24 02:36:07;;;;;;;2.58;1.45;;;15.20;99.90;;;;;;2099614;28;20049;-69
2023/10/24 02:37:07;;;;;;;2.55;1.23;;;15.20;99.90;;;;;;2097615;28;20039;-71
2023/10/24 02:38:08;;;;;;;1.50;1.10;;;15.20;99.90;;;;;;2099863;28;20682;-70
2023/10/24 02:39:09;;;;;;;3.17;1.20;;;15.20;99.90;;;;;;2097585;28;20028;-70
2023/10/24 02:40:10;;;;;;;2.63;1.58;;;15.30;99.90;;;;;;2097640;28;20047;-69
2023/10/24 02:41:11;;;;;;;3.85;1.55;;;15.20;99.90;;;;;;2098382;28;20059;-70
2023/10/24 02:42:11;;;;;;;1.65;1.10;;;15.20;99.90;;;;;;2099425;28;20035;-69
2023/10/24 02:43:12;;;;;;;3.33;0.98;;;15.20;99.90;;;;;;2098664;28;20028;-70
2023/10/24 02:44:12;;;;;;;3.33;1.40;;;15.20;99.90;;;;;;2097176;28;20028;-70
2023/10/24 02:45:13;;;;;;;2.78;1.20;;;15.20;99.90;;;;;;2096515;28;20486;-70
2023/10/24 02:46:14;;;;;;;6.28;1.20;;;15.20;99.90;;;;;;2097431;28;20032;-69
2023/10/24 02:47:14;;;;;;;4.35;1.40;;;15.20;99.90;;;;;;2102772;28;20035;-71
2023/10/24 02:48:15;;;;;;;2.72;1.08;;;15.20;99.90;;;;;;2102636;28;20040;-70
2023/10/24 02:49:16;;;;;;;3.13;1.45;;;15.20;99.90;;;;;;2100045;28;20032;-69
2023/10/24 02:50:16;;;;;;;3.65;1.27;;;15.20;99.90;;;;;;2098040;28;20390;-69
2023/10/24 02:51:17;;;;;;;2.38;1.20;;;15.20;99.90;;;;;;2099905;28;20013;-70
2023/10/24 02:52:18;;;;;;;4.57;1.55;;;15.20;99.90;;;;;;2099251;28;20070;-69
2023/10/24 02:53:18;;;;;;;2.63;1.00;;;15.20;99.90;;;;;;2099370;28;20589;-69
2023/10/24 02:54:19;;;;;;;4.18;1.45;;;15.20;99.90;;;;;;2101084;28;20033;-69
2023/10/24 02:55:19;;;;;;;3.72;1.55;;;15.20;99.90;;;;;;2102047;28;20028;-70
2023/10/24 02:56:20;;;;;;;2.50;1.02;;;15.20;99.90;;;;;;2098561;28;20029;-70
2023/10/24 02:57:20;;;;;;;2.00;1.20;;;15.20;99.90;;;;;;2095340;28;20033;-69
2023/10/24 02:58:21;;;;;;;2.40;0.90;;;15.30;99.90;;;;;;2097851;28;20475;-70
2023/10/24 02:59:21;;;;;;;1.70;1.13;;;15.30;99.90;;;;;;2098264;28;20391;-69
2023/10/24 03:00:22;;;;;;;3.33;1.33;;;15.20;99.90;;;;;;2098917;28;20028;-69
2023/10/24 03:01:23;;;;;;;1.58;1.30;;;15.30;99.90;;;;;;2099994;28;20028;-69
2023/10/24 03:02:24;;;;;;;2.67;1.13;;;15.30;99.90;;;;;;2097753;28;20028;-70
2023/10/24 03:03:24;;;;;;;1.75;1.08;;;15.30;99.90;;;;;;2097956;28;20020;-68
2023/10/24 03:04:25;;;;;;;3.67;1.20;;;15.20;99.90;;;;;;2097323;28;20124;-70
2023/10/24 03:05:26;;;;;;;3.63;1.55;;;15.20;99.90;;;;;;2098480;28;20024;-70
2023/10/24 03:06:27;;;;;;;1.73;1.10;;;15.20;99.90;;;;;;2099703;28;20028;-70
2023/10/24 03:07:28;;;;;;;2.97;1.58;;;15.20;99.90;;;;;;2097222;28;20021;-69
2023/10/24 03:08:28;;;;;;;1.90;1.27;;;15.30;99.90;;;;;;2098110;28;20054;-70
2023/10/24 03:09:29;;;;;;;2.58;1.48;;;15.20;99.90;;;;;;2098545;28;20025;-69
2023/10/24 03:10:30;;;;;;;4.53;1.42;;;15.30;99.90;;;;;;2098542;28;20544;-70
2023/10/24 03:11:30;;;;;;;3.40;1.10;;;15.30;99.90;;;;;;2097989;28;20472;-70
2023/10/24 03:12:31;;;;;;;0.90;0.90;;;15.30;99.90;;;;;;2099641;28;20099;-70
2023/10/24 03:13:31;;;;;;;2.85;1.30;;;15.20;99.90;;;;;;2097305;28;20017;-70
2023/10/24 03:14:32;;;;;;;3.08;1.15;;;15.30;99.90;;;;;;2099490;28;20029;-70
2023/10/24 03:15:34;;;;;;;2.35;1.27;;;15.30;99.90;;;;;;2097980;28;20437;-70
2023/10/24 03:16:34;;;;;;;2.42;1.05;;;15.30;99.90;;;;;;2099132;28;20074;-70
2023/10/24 03:17:35;;;;;;;3.30;1.20;;;15.30;99.90;;;;;;2099756;28;20028;-69
2023/10/24 03:18:35;;;;;;;3.78;1.42;;;15.30;99.90;;;;;;2098164;28;20029;-70
2023/10/24 03:19:36;;;;;;;2.40;1.35;;;15.30;99.90;;;;;;2097222;28;20380;-70
2023/10/24 03:20:40;;;;;;;2.15;1.17;;;15.30;99.90;;;;;;2099968;28;20051;-71
2023/10/24 03:21:40;;;;;;;3.05;1.40;;;15.30;99.90;;;;;;2099443;28;20721;-69
2023/10/24 03:22:41;;;;;;;1.63;1.10;;;15.30;99.90;;;;;;2097637;28;20441;-70
2023/10/24 03:23:41;;;;;;;2.40;1.65;;;15.20;99.90;;;;;;2097293;28;20024;-70
2023/10/24 03:24:42;;;;;;;3.22;1.35;;;15.30;99.90;;;;;;2098040;28;20024;-69
2023/10/24 03:25:42;;;;;;;3.35;1.48;;;15.30;99.90;;;;;;2098427;28;20021;-69
2023/10/24 03:26:43;;;;;;;3.38;1.38;;;15.30;99.90;;;;;;2097846;28;20036;-69
2023/10/24 03:27:43;;;;;;;5.35;1.20;;;15.30;99.90;;;;;;2097153;28;20567;-70
2023/10/24 03:28:45;;;;;;;2.47;1.20;;;15.30;99.90;;;;;;2098540;28;20032;-70
2023/10/24 03:29:46;;;;;;;1.55;1.30;;;15.30;99.90;;;;;;2098783;28;20491;-70
2023/10/24 03:30:48;;;;;;;3.08;1.23;;;15.30;99.90;;;;;;2097323;28;20070;-70
2023/10/24 03:31:48;;;;;;;3.35;1.50;;;15.30;99.90;;;;;;2097908;28;20028;-70
2023/10/24 03:32:49;;;;;;;1.75;1.00;;;15.30;99.90;;;;;;2100219;28;20024;-69
2023/10/24 03:33:50;;;;;;;3.28;1.42;;;15.30;99.90;;;;;;2099610;28;20063;-70
2023/10/24 03:34:50;;;;;;;2.53;1.38;;;15.30;99.90;;;;;;2096542;28;20505;-69
2023/10/24 03:35:51;;;;;;;1.75;1.42;;;15.30;99.90;;;;;;2098840;28;20032;-70
2023/10/24 03:36:51;;;;;;;3.53;1.33;;;15.30;99.90;;;;;;2098449;28;20601;-70
2023/10/24 03:37:52;;;;;;;1.90;1.00;;;15.30;99.90;;;;;;2100320;28;20039;-70
2023/10/24 03:38:52;;;;;;;5.35;1.42;;;15.30;99.90;;;;;;2098415;28;20024;-70
2023/10/24 03:39:53;;;;;;;3.17;1.38;;;15.30;99.90;;;;;;2097062;28;20065;-70
2023/10/24 03:40:54;;;;;;;2.40;1.40;;;15.40;99.90;;;;;;2098365;28;20032;-70
2023/10/24 03:41:55;;;;;;;3.05;1.50;;;15.30;99.90;;;;;;2097890;28;20032;-70
2023/10/24 03:42:56;;;;;;;3.42;1.23;;;15.30;99.90;;;;;;2098510;28;20097;-69
2023/10/24 03:43:56;;;;;;;2.22;1.35;;;15.30;99.90;;;;;;2097101;28;20109;-69
2023/10/24 03:44:57;;;;;;;3.33;1.70;;;15.30;99.90;;;;;;2097532;28;20656;-73
2023/10/24 03:45:57;;;;;;;1.88;1.38;;;15.30;99.90;;;;;;2098243;28;20035;-74
2023/10/24 03:46:59;;;;;;;1.27;1.17;;;15.30;99.90;;;;;;2096813;28;20052;-73
2023/10/24 03:47:59;;;;;;;2.70;1.50;;;15.30;99.90;;;;;;2098694;28;20020;-73
2023/10/24 03:49:00;;;;;;;3.63;1.23;;;15.30;99.90;;;;;;2097955;28;20032;-74
2023/10/24 03:50:00;;;;;;;2.47;1.40;;;15.30;99.90;;;;;;2098413;28;20107;-73
2023/10/24 03:51:01;;;;;;;2.20;1.25;;;15.30;99.90;;;;;;2098621;28;20047;-72
2023/10/24 03:52:02;;;;;;;4.85;1.88;;;15.30;99.90;;;;;;2097706;28;20040;-73
2023/10/24 03:53:03;;;;;;;1.88;1.35;;;15.30;99.90;;;;;;2098541;28;20056;-74
2023/10/24 03:54:04;;;;;;;2.45;1.40;;;15.30;99.90;;;;;;2098765;28;20253;-73
2023/10/24 03:55:06;;;;;;;1.67;1.30;;;15.30;99.90;;;;;;2097858;28;20036;-74
2023/10/24 03:56:06;;;;;;;1.50;1.40;;;15.30;99.90;;;;;;2099644;28;20035;-73
2023/10/24 03:57:07;;;;;;;4.50;1.98;;;15.30;99.90;;;;;;2097969;28;20056;-73
2023/10/24 03:58:07;;;;;;;4.50;1.60;;;15.30;99.90;;;;;;2097247;28;20379;-73
2023/10/24 03:59:08;;;;;;;2.10;1.45;;;15.30;99.90;;;;;;2098191;28;20040;-74
2023/10/24 04:00:09;;;;;;;2.95;1.35;;;15.30;99.90;;;;;;2097557;28;20048;-73
2023/10/24 04:01:09;;;;;;;1.75;1.60;;;15.30;99.90;;;;;;2098556;28;20035;-73
2023/10/24 04:02:10;;;;;;;2.53;1.52;;;15.30;99.90;;;;;;2100367;28;20138;-73
2023/10/24 04:03:10;;;;;;;3.58;1.35;;;15.30;99.90;;;;;;2099914;28;20064;-74
2023/10/24 04:04:11;;;;;;;3.25;1.33;;;15.30;99.90;;;;;;2099075;28;20149;-73
2023/10/24 04:05:11;;;;;;;3.33;1.70;;;15.30;99.90;;;;;;2097281;28;20056;-73
2023/10/24 04:06:12;;;;;;;2.47;1.70;;;15.30;99.90;;;;;;2099175;28;20032;-73
2023/10/24 04:07:12;;;;;;;1.90;1.70;;;15.30;99.90;;;;;;2096846;28;20422;-73
2023/10/24 04:08:13;;;;;;;2.95;1.42;;;15.30;99.90;;;;;;2099214;28;20148;-73
2023/10/24 04:09:13;;;;;;;3.65;1.60;;;15.30;99.90;;;;;;2099194;28;20024;-74
2023/10/24 04:10:15;;;;;;;1.98;1.60;;;15.30;99.90;;;;;;2099440;28;20798;-74
2023/10/24 04:11:17;;;;;;;2.42;1.60;;;15.30;99.90;;;;;;2098040;28;20030;-73
2023/10/24 04:12:17;;;;;;;3.60;1.92;;;15.30;99.90;;;;;;2099921;28;20025;-74
2023/10/24 04:13:18;;;;;;;2.05;1.50;;;15.30;99.90;;;;;;2097722;28;20047;-74
2023/10/24 04:14:18;;;;;;;1.75;1.50;;;15.30;99.90;;;;;;2099628;28;20032;-74
2023/10/24 04:15:19;;;;;;;5.30;1.90;;;15.30;99.90;;;;;;2099847;28;20028;-73
2023/10/24 04:16:20;;;;;;;3.33;1.75;;;15.30;99.90;;;;;;2102165;28;20071;-73
2023/10/24 04:17:20;;;;;;;1.63;1.50;;;15.30;99.90;;;;;;2097941;28;20038;-74
2023/10/24 04:18:21;;;;;;;4.35;1.80;;;15.30;99.90;;;;;;2096592;28;20028;-73
2023/10/24 04:19:21;;;;;;;3.20;1.70;;;15.30;99.90;;;;;;2097852;28;20027;-73
2023/10/24 04:20:22;;;;;;;2.80;1.70;;;15.30;99.90;;;;;;2097605;28;20029;-74
2023/10/24 04:21:22;;;;;;;2.40;1.52;;;15.30;99.90;;;;;;2097441;28;20094;-73
2023/10/24 04:22:23;;;;;;;5.75;1.70;;;15.20;99.90;;;;;;2098030;28;20074;-74
2023/10/24 04:23:23;;;;;;;5.78;1.80;;;15.20;99.90;;;;;;2098100;28;20021;-73
2023/10/24 04:24:24;;;;;;;2.72;1.73;;;15.20;99.90;;;;;;2099700;28;20059;-73
2023/10/24 04:25:24;;;;;;;5.75;2.20;;;15.20;99.90;;;;;;2101226;28;20020;-74
2023/10/24 04:26:25;;;;;;;2.67;1.80;;;15.20;99.90;;;;;;2101310;28;20955;-73
2023/10/24 04:27:25;;;;;;;1.98;1.77;;;15.20;99.90;;;;;;2097967;28;20428;-73
2023/10/24 04:28:26;;;;;;;3.10;1.70;;;15.20;99.90;;;;;;2098141;28;20016;-73
2023/10/24 04:29:27;;;;;;;2.88;1.38;;;15.20;99.90;;;;;;2098045;28;20612;-73
2023/10/24 04:30:28;;;;;;;5.22;1.90;;;15.20;99.90;;;;;;2098958;28;20482;-73
2023/10/24 04:31:28;;;;;;;1.80;1.20;;;15.20;99.90;;;;;;2098081;28;20139;-73
2023/10/24 04:32:29;;;;;;;2.78;1.67;;;15.20;99.90;;;;;;2096916;28;20039;-74
2023/10/24 04:33:30;;;;;;;2.13;1.20;;;15.20;99.90;;;;;;2101065;28;20043;-74
2023/10/24 04:34:31;;;;;;;3.03;1.75;;;15.20;99.90;;;;;;2102478;28;20022;-74
2023/10/24 04:35:31;;;;;;;1.27;1.17;;;15.20;99.90;;;;;;2097541;28;20028;-73
2023/10/24 04:36:32;;;;;;;2.55;1.42;;;15.20;99.90;;;;;;2098867;28;20537;-74
2023/10/24 04:37:33;;;;;;;2.85;1.67;;;15.20;99.90;;;;;;2097689;28;20545;-74
2023/10/24 04:38:33;;;;;;;2.30;1.40;;;15.20;99.90;;;;;;2097019;28;20025;-74
2023/10/24 04:39:34;;;;;;;3.13;1.10;;;15.20;99.90;;;;;;2098861;28;20040;-73
2023/10/24 04:40:38;;;;;;;2.35;1.40;;;15.20;99.90;;;;;;2100141;28;20473;-73
2023/10/24 04:41:39;;;;;;;3.22;1.25;;;15.20;99.90;;;;;;2099843;28;20035;-74
2023/10/24 04:42:39;;;;;;;2.78;1.00;;;15.20;99.90;;;;;;2097960;28;20056;-74
2023/10/24 04:43:40;;;;;;;2.30;1.40;;;15.20;99.90;;;;;;2096974;28;20040;-73
2023/10/24 04:44:40;;;;;;;3.75;1.25;;;15.20;99.90;;;;;;2094829;28;20150;-73
2023/10/24 04:45:41;;;;;;;3.78;1.40;;;15.20;99.90;;;;;;2097039;28;20029;-73
2023/10/24 04:46:41;;;;;;;2.00;1.10;;;15.20;99.90;;;;;;2100843;28;20022;-73
2023/10/24 04:47:42;;;;;;;3.92;1.80;;;15.20;99.90;;;;;;2101422;28;20048;-72
2023/10/24 04:48:42;;;;;;;1.75;1.20;;;15.20;99.90;;;;;;2099471;28;20032;-74
2023/10/24 04:49:43;;;;;;;2.50;1.17;;;15.10;99.90;;;;;;2105506;28;20046;-73
2023/10/24 04:50:43;;;;;;;1.88;1.23;;;15.20;99.90;;;;;;2108883;28;20063;-72
2023/10/24 04:51:44;;;;;;;1.52;1.30;;;15.20;99.90;;;;;;2095688;28;20078;-73
2023/10/24 04:52:45;;;;;;;2.67;1.50;;;15.20;99.90;;;;;;2098975;28;20016;-73
2023/10/24 04:53:45;;;;;;;2.40;1.50;;;15.20;99.90;;;;;;2102714;28;20402;-74
2023/10/24 04:54:46;;;;;;;1.52;1.15;;;15.20;99.90;;;;;;2101386;28;20028;-73
2023/10/24 04:55:47;;;;;;;3.92;1.10;;;15.10;99.90;;;;;;2099334;28;20027;-73
2023/10/24 04:56:47;;;;;;;1.65;1.30;;;15.10;99.90;;;;;;2097611;28;20048;-73
2023/10/24 04:57:48;;;;;;;1.50;1.40;;;15.20;99.90;;;;;;2099773;28;20024;-73
2023/10/24 04:58:49;;;;;;;3.40;1.60;;;15.10;99.90;;;;;;2099497;28;20722;-73
2023/10/24 04:59:50;;;;;;;3.10;1.73;;;15.10;99.90;;;;;;2096649;28;20021;-73
2023/10/24 05:00:50;;;;;;;2.00;1.70;;;15.20;99.90;;;;;;2097789;28;20032;-73
2023/10/24 05:01:51;;;;;;;2.80;1.30;;;15.10;99.90;;;;;;2097734;28;20031;-73
2023/10/24 05:02:52;;;;;;;4.20;1.30;;;15.10;99.90;;;;;;2096514;28;20021;-73
2023/10/24 05:03:52;;;;;;;3.60;1.73;;;15.20;99.90;;;;;;2097311;28;20414;-73
2023/10/24 05:04:53;;;;;;;2.05;1.50;;;15.20;99.90;;;;;;2098021;28;20024;-73
2023/10/24 05:05:53;;;;;;;2.72;2.00;;;15.10;99.90;;;;;;2095505;28;20024;-72
2023/10/24 05:06:54;;;;;;;2.88;1.77;;;15.10;99.90;;;;;;2098787;28;20024;-73
2023/10/24 05:07:54;;;;;;;2.17;1.75;;;15.10;99.90;;;;;;2097579;28;20061;-73
2023/10/24 05:08:55;;;;;;;3.42;1.83;;;15.20;99.90;;;;;;2098779;28;20483;-73
2023/10/24 05:09:56;;;;;;;2.30;1.60;;;15.20;99.90;;;;;;2096961;28;20170;-73
2023/10/24 05:10:57;;;;;;;1.63;1.40;;;15.20;99.90;;;;;;2099708;28;20016;-73
2023/10/24 05:11:57;;;;;;;2.00;1.55;;;15.20;99.90;;;;;;2099351;28;20479;-73
2023/10/24 05:12:58;;;;;;;4.05;1.50;;;15.20;99.90;;;;;;2097831;28;20540;-74
2023/10/24 05:13:59;;;;;;;1.70;1.48;;;15.20;99.90;;;;;;2098740;28;20052;-73
2023/10/24 05:14:59;;;;;;;5.15;1.63;;;15.20;99.90;;;;;;2097871;28;20040;-74
2023/10/24 05:16:00;;;;;;;1.80;1.50;;;15.20;99.90;;;;;;2097353;28;20020;-73
2023/10/24 05:17:00;;;;;;;1.85;1.65;;;15.20;99.90;;;;;;2098469;28;20059;-73